Startpagina
METAR-TAF:

METAR-TAF

Vliegvelden :

Algiers, Algerije

Luchthaven Houari Boumedienne

breedte: 36-43N, lengte: 003-15E, hoogte: 25 m

Actueel weer

Dit bericht is 39 minuten geleden gemaakt, om 02:30 UTC
Weinig wind
Temperatuur 19°C
Vochtigheid 88%
Druk 1014 hPa
Zicht 10 km of meer
Weinig wolken op 1300 ft

METAR: DAAG 240230Z 00000KT 9999 FEW013 19/17 Q1014

Tijdstip: 04:09 (03:09 UTC)

Verwachting

Dit bericht is 4 uur en het 9 minuten geleden gemaakt, om 23:00 UTC
Verwachting geldig van 24 om 00 UTC tot 24 om 24 UTC
Wind 2 kt uit variabele richting
Zicht 10 km of meer
Verspreide wolken op 1600 ft
Kans 30% :
Tijdelijke
van 24 om 00 UTC tot 24 om 06 UTC
Gebroken wolken op 1000 ft
Wijzigt naar
van 24 om 08 UTC tot 24 om 11 UTC
Wind 12 kt uit het noordoosten
Wijzigt naar
van 24 om 19 UTC tot 24 om 21 UTC
Wind 2 kt uit variabele richting

TAF: DAAG 232300Z 2400/2424 VRB02KT 9999 SCT016 PROB30 TEMPO 2400/2406 BKN010 BECMG 2408/2411 04012KT BECMG 2419/2421 VRB02KT

Waarnemingen en weersverwachtingen van meer dan 4000 vliegvelden (METAR en TAF).

De beschikbare stations zijn de gele en rode punten op de kaart.

Ga met uw muis naar het station om de naam te zien.

Klik dan om waarnemingen en weersverwachtingen te zien.

kaart wijzigen: klik op de groene knoppen met een zwart kruis om in te zoomen, op de groene knop met een streepje om uit te zoomen of op de groene pijlen voor aangrenzende kaarten.


METAR-TAF: